createdAt,value
2022-08-26T00:01:56.663Z,20.45
2022-08-26T00:04:26.916Z,20.50
2022-08-26T00:06:56.133Z,20.53
2022-08-26T00:09:24.954Z,20.58
2022-08-26T00:11:53.439Z,20.69
2022-08-26T00:14:21.594Z,20.65
2022-08-26T00:16:49.609Z,20.72
2022-08-26T00:19:18.905Z,20.70
2022-08-26T00:21:50.670Z,20.89
2022-08-26T00:24:20.851Z,20.87
2022-08-26T00:26:48.971Z,21.06
2022-08-26T00:29:17.684Z,20.69
2022-08-26T00:31:46.010Z,21.03
2022-08-26T00:34:15.342Z,21.15
2022-08-26T00:36:44.322Z,21.03
2022-08-26T00:39:14.144Z,20.83
2022-08-26T00:41:42.603Z,20.88
2022-08-26T00:44:12.151Z,20.92
2022-08-26T00:46:46.470Z,20.75
2022-08-26T00:49:19.239Z,20.76
2022-08-26T00:51:52.051Z,20.68
2022-08-26T00:54:24.114Z,20.37
2022-08-26T00:56:59.843Z,20.28
2022-08-26T00:59:32.693Z,20.29
2022-08-26T01:02:02.780Z,20.20
2022-08-26T01:04:32.652Z,20.15
2022-08-26T01:07:01.159Z,20.16
2022-08-26T01:09:31.134Z,20.28
2022-08-26T01:12:02.260Z,20.35
2022-08-26T01:14:33.613Z,20.43
2022-08-26T01:17:05.188Z,20.45
2022-08-26T01:19:39.256Z,20.64
2022-08-26T01:22:12.065Z,20.67
2022-08-26T01:24:42.704Z,20.81
2022-08-26T01:27:13.705Z,20.85
2022-08-26T01:29:45.948Z,20.56
2022-08-26T01:32:18.795Z,20.64
2022-08-26T01:34:48.405Z,20.42
2022-08-26T01:37:21.199Z,20.38
2022-08-26T01:39:52.916Z,20.66
2022-08-26T01:42:23.084Z,20.74
2022-08-26T01:44:55.188Z,20.75
2022-08-26T01:47:28.203Z,20.80
2022-08-26T01:50:01.351Z,20.69
2022-08-26T01:52:34.683Z,21.13
2022-08-26T01:55:05.215Z,20.96
2022-08-26T01:57:37.205Z,20.97
2022-08-26T02:00:11.212Z,21.05
2022-08-26T02:02:39.156Z,21.01
2022-08-26T02:05:11.608Z,20.83
2022-08-26T02:07:40.648Z,20.61
2022-08-26T02:10:10.840Z,20.43
2022-08-26T02:12:40.288Z,20.56
2022-08-26T02:15:12.191Z,20.58
2022-08-26T02:17:44.736Z,20.88
2022-08-26T02:20:14.987Z,20.83
2022-08-26T02:22:45.181Z,20.54
2022-08-26T02:25:19.337Z,20.60
2022-08-26T02:27:48.912Z,20.70
2022-08-26T02:30:19.293Z,20.72
2022-08-26T02:32:49.483Z,20.79
2022-08-26T02:35:20.207Z,20.76
2022-08-26T02:37:49.543Z,20.40
2022-08-26T02:40:22.928Z,20.68
2022-08-26T02:42:53.062Z,20.47
2022-08-26T02:45:24.140Z,20.84
2022-08-26T02:47:52.720Z,20.79
2022-08-26T02:50:22.244Z,20.76
2022-08-26T02:52:50.173Z,20.81
2022-08-26T02:55:19.648Z,20.66
2022-08-26T02:57:47.584Z,20.52
2022-08-26T03:00:17.752Z,20.66
2022-08-26T03:02:46.229Z,20.74
2022-08-26T03:05:15.507Z,20.92
2022-08-26T03:07:43.836Z,20.96
2022-08-26T03:10:13.652Z,20.96
2022-08-26T03:12:47.433Z,20.89
2022-08-26T03:15:18.649Z,21.06
2022-08-26T03:17:49.160Z,20.47
2022-08-26T03:20:19.296Z,20.47
2022-08-26T03:22:47.382Z,20.63
2022-08-26T03:25:17.801Z,20.72
2022-08-26T03:27:47.676Z,20.77
2022-08-26T03:30:34.479Z,20.74
2022-08-26T03:33:03.325Z,20.65
2022-08-26T03:35:32.789Z,20.71
2022-08-26T03:38:01.323Z,20.12
2022-08-26T03:40:30.203Z,20.73
2022-08-26T03:42:59.659Z,20.93
2022-08-26T03:45:27.680Z,20.91
2022-08-26T03:47:55.859Z,20.75
2022-08-26T03:50:27.196Z,20.96
2022-08-26T03:52:56.373Z,21.07
2022-08-26T03:55:26.706Z,20.95
2022-08-26T03:57:55.898Z,21.12
2022-08-26T04:00:25.729Z,20.82
2022-08-26T04:02:54.199Z,21.08
2022-08-26T04:05:23.601Z,21.27
2022-08-26T04:07:52.274Z,21.22
2022-08-26T04:10:28.595Z,21.25
2022-08-26T04:12:56.788Z,21.42
2022-08-26T04:15:28.668Z,21.40
2022-08-26T04:17:57.526Z,21.24
2022-08-26T04:20:25.925Z,21.34
2022-08-26T04:22:53.947Z,21.46
2022-08-26T04:25:22.561Z,21.36
2022-08-26T04:27:52.142Z,21.25
2022-08-26T04:30:21.237Z,21.21
2022-08-26T04:32:50.924Z,21.04
2022-08-26T04:35:21.815Z,21.21
2022-08-26T04:37:53.917Z,21.24
2022-08-26T04:40:21.866Z,21.40
2022-08-26T04:42:50.272Z,21.33
2022-08-26T04:45:19.018Z,21.23
2022-08-26T04:47:56.370Z,21.42
2022-08-26T04:50:26.648Z,21.54
2022-08-26T04:52:55.096Z,21.55
2022-08-26T04:55:29.036Z,21.71
2022-08-26T04:58:08.764Z,22.02
2022-08-26T05:00:38.745Z,22.10
2022-08-26T05:03:10.374Z,21.94
2022-08-26T05:05:40.977Z,21.89
2022-08-26T05:08:09.994Z,21.68
2022-08-26T05:10:42.458Z,21.63
2022-08-26T05:13:14.235Z,21.72
2022-08-26T05:15:44.164Z,21.71
2022-08-26T05:18:14.933Z,21.65
2022-08-26T05:20:46.532Z,21.70
2022-08-26T05:23:15.972Z,21.79
2022-08-26T05:25:47.046Z,22.05
2022-08-26T05:28:17.491Z,22.11
2022-08-26T05:30:45.871Z,22.15
2022-08-26T05:33:16.369Z,21.93
2022-08-26T05:35:46.030Z,21.76
2022-08-26T05:38:16.602Z,21.95
2022-08-26T05:40:46.720Z,21.85
2022-08-26T05:43:15.197Z,22.05
2022-08-26T05:45:46.146Z,22.19
2022-08-26T05:48:16.683Z,21.75
2022-08-26T05:50:47.187Z,22.00
2022-08-26T05:53:17.437Z,22.19
2022-08-26T05:55:49.267Z,22.18
2022-08-26T05:58:20.193Z,22.06
2022-08-26T06:00:57.055Z,22.20
2022-08-26T06:03:26.337Z,22.04
2022-08-26T06:05:54.455Z,21.92
2022-08-26T06:08:22.468Z,22.10
2022-08-26T06:10:52.580Z,22.35
2022-08-26T06:13:21.831Z,22.33
2022-08-26T06:15:52.202Z,22.45
2022-08-26T06:18:22.882Z,22.18
2022-08-26T06:20:57.205Z,22.49
2022-08-26T06:23:45.486Z,22.47
2022-08-26T06:26:16.181Z,22.90
2022-08-26T06:28:45.466Z,22.79
2022-08-26T06:31:14.347Z,22.87
2022-08-26T06:33:42.436Z,22.68
2022-08-26T06:36:16.945Z,22.78
2022-08-26T06:38:47.311Z,23.09
2022-08-26T06:41:15.779Z,23.07
2022-08-26T06:43:43.787Z,23.19
2022-08-26T06:46:14.428Z,23.21
2022-08-26T06:48:42.363Z,23.06
2022-08-26T06:51:15.001Z,23.00
2022-08-26T06:53:45.654Z,23.04
2022-08-26T06:56:16.105Z,23.48
2022-08-26T06:58:44.908Z,23.62
2022-08-26T07:01:18.440Z,23.55
2022-08-26T07:03:49.040Z,23.64
2022-08-26T07:06:19.652Z,23.71
2022-08-26T07:08:47.630Z,23.63
2022-08-26T07:11:15.743Z,23.63
2022-08-26T07:13:44.848Z,23.29
2022-08-26T07:16:17.520Z,23.69
2022-08-26T07:18:48.375Z,23.53
2022-08-26T07:21:19.132Z,23.83
2022-08-26T07:23:47.287Z,23.83
2022-08-26T07:26:20.844Z,23.94
2022-08-26T07:28:50.636Z,24.13
2022-08-26T07:31:23.001Z,23.71
2022-08-26T07:33:51.595Z,23.55
2022-08-26T07:36:23.117Z,24.03
2022-08-26T07:38:51.577Z,24.35
2022-08-26T07:41:26.336Z,24.28
2022-08-26T07:43:55.628Z,24.27
2022-08-26T07:46:27.508Z,24.39
2022-08-26T07:48:59.174Z,24.35
2022-08-26T07:51:29.074Z,24.23
2022-08-26T07:53:57.151Z,24.33
2022-08-26T07:56:26.239Z,24.66
2022-08-26T07:58:54.693Z,24.67
2022-08-26T08:01:23.633Z,24.61
2022-08-26T08:03:52.272Z,24.68
2022-08-26T08:06:20.780Z,24.83
2022-08-26T08:08:51.664Z,25.04
2022-08-26T08:11:21.669Z,25.54
2022-08-26T08:13:56.531Z,26.19
2022-08-26T08:16:26.100Z,26.08
2022-08-26T08:18:54.526Z,26.16
2022-08-26T08:21:24.473Z,26.43
2022-08-26T08:23:55.752Z,26.11
2022-08-26T08:26:25.292Z,26.49
2022-08-26T08:28:59.043Z,26.58
2022-08-26T08:34:18.149Z,26.34
2022-08-26T08:36:46.818Z,26.52
2022-08-26T08:39:16.097Z,26.49
2022-08-26T08:42:00.536Z,26.34
2022-08-26T08:44:30.941Z,26.24
2022-08-26T08:47:04.925Z,26.28
2022-08-26T08:49:34.704Z,27.00
2022-08-26T08:52:08.024Z,28.09
2022-08-26T08:54:37.383Z,28.91
2022-08-26T08:57:12.086Z,28.14
2022-08-26T08:59:52.079Z,27.71
2022-08-26T09:02:29.070Z,27.30
2022-08-26T09:05:09.144Z,28.13
2022-08-26T09:07:47.282Z,28.55
2022-08-26T09:10:35.172Z,29.31
2022-08-26T09:13:06.217Z,30.39
2022-08-26T09:15:43.765Z,29.47
2022-08-26T09:18:24.938Z,30.19
2022-08-26T09:20:57.812Z,29.84
2022-08-26T09:23:26.174Z,30.37
2022-08-26T09:25:59.234Z,31.19
2022-08-26T09:28:29.867Z,32.16
2022-08-26T09:31:11.690Z,32.39
2022-08-26T09:33:41.209Z,30.50
2022-08-26T09:36:24.756Z,29.54
2022-08-26T09:38:54.336Z,28.62
2022-08-26T09:41:28.186Z,28.74
2022-08-26T09:44:18.262Z,29.90
2022-08-26T09:46:55.573Z,30.11
2022-08-26T09:49:35.868Z,31.26
2022-08-26T09:52:18.697Z,31.37
2022-08-26T09:54:59.501Z,32.33
2022-08-26T09:57:31.411Z,31.97
2022-08-26T10:00:01.300Z,31.12
2022-08-26T10:02:41.623Z,31.27
2022-08-26T10:05:19.221Z,30.17
2022-08-26T10:07:49.948Z,29.83
2022-08-26T10:10:22.572Z,31.04
2022-08-26T10:13:04.299Z,31.50
2022-08-26T10:15:48.646Z,32.17
2022-08-26T10:18:25.145Z,32.65
2022-08-26T10:20:59.953Z,32.97
2022-08-26T10:23:32.336Z,33.86
2022-08-26T10:26:05.754Z,32.92
2022-08-26T10:28:41.670Z,32.42
2022-08-26T10:31:23.312Z,33.27
2022-08-26T10:34:00.329Z,33.42
2022-08-26T10:39:48.124Z,33.44
2022-08-26T10:42:25.459Z,33.88
2022-08-26T10:45:02.849Z,33.64
2022-08-26T10:47:38.297Z,34.29
2022-08-26T10:50:07.320Z,34.72
2022-08-26T10:52:53.715Z,34.13
2022-08-26T10:55:34.699Z,32.53
2022-08-26T10:58:26.124Z,33.00
2022-08-26T11:01:22.829Z,34.15
2022-08-26T11:04:00.357Z,34.09
2022-08-26T11:06:31.397Z,34.48
2022-08-26T11:09:01.161Z,32.81
2022-08-26T11:12:01.128Z,31.53
2022-08-26T11:14:42.078Z,31.38
2022-08-26T11:17:57.592Z,32.73
2022-08-26T11:20:39.337Z,33.71
2022-08-26T11:23:38.923Z,33.16
2022-08-26T11:26:32.759Z,32.67
2022-08-26T11:29:13.156Z,33.63
2022-08-26T11:31:57.174Z,33.52
2022-08-26T11:34:56.653Z,33.77
2022-08-26T11:37:33.217Z,33.11
2022-08-26T11:40:04.281Z,32.78
2022-08-26T11:42:41.029Z,33.18
2022-08-26T11:45:20.441Z,33.22
2022-08-26T11:47:49.450Z,33.64
2022-08-26T11:50:23.427Z,34.52
2022-08-26T11:52:56.533Z,35.00
2022-08-26T11:55:25.249Z,34.64
2022-08-26T11:57:56.027Z,34.29
2022-08-26T12:00:27.439Z,34.45
2022-08-26T12:03:06.537Z,34.76
2022-08-26T12:05:44.986Z,34.28
2022-08-26T12:08:17.792Z,33.50
2022-08-26T12:10:46.221Z,33.55
2022-08-26T12:13:23.129Z,33.33
2022-08-26T12:15:55.789Z,33.01
2022-08-26T12:18:29.029Z,33.28
2022-08-26T12:21:01.692Z,33.25
2022-08-26T12:23:42.150Z,33.43
2022-08-26T12:26:16.512Z,33.61
2022-08-26T12:28:48.826Z,34.18
2022-08-26T12:31:24.111Z,34.20
2022-08-26T12:33:54.122Z,33.89
2022-08-26T12:36:28.638Z,33.36
2022-08-26T12:38:58.554Z,32.88
2022-08-26T12:41:48.721Z,32.73
2022-08-26T12:44:38.448Z,32.21
2022-08-26T12:47:09.481Z,31.83
2022-08-26T12:49:39.420Z,31.39
2022-08-26T12:52:29.994Z,31.73
2022-08-26T12:55:00.027Z,31.80
2022-08-26T12:57:32.139Z,31.38
2022-08-26T13:00:26.225Z,31.21
2022-08-26T13:02:56.856Z,30.67
2022-08-26T13:05:30.209Z,31.11
2022-08-26T13:08:18.451Z,31.22
2022-08-26T13:10:50.314Z,30.81
2022-08-26T13:13:18.292Z,30.41
2022-08-26T13:15:46.200Z,30.19
2022-08-26T13:18:14.119Z,30.25
2022-08-26T13:20:44.851Z,29.49
2022-08-26T13:23:15.091Z,30.33
2022-08-26T13:25:43.317Z,30.10
2022-08-26T13:28:11.311Z,29.99
2022-08-26T13:30:47.831Z,29.68
2022-08-26T13:33:18.269Z,29.74
2022-08-26T13:35:46.284Z,29.74
2022-08-26T13:38:32.890Z,29.44
2022-08-26T13:41:02.741Z,29.15
2022-08-26T13:43:31.096Z,29.22
2022-08-26T13:45:59.772Z,29.41
2022-08-26T13:48:27.767Z,29.49
2022-08-26T13:50:55.733Z,29.48
2022-08-26T13:53:25.228Z,29.46
2022-08-26T13:55:53.214Z,29.55
2022-08-26T13:58:21.234Z,29.40
2022-08-26T14:00:53.725Z,29.37
2022-08-26T14:03:21.809Z,29.14
2022-08-26T14:05:49.912Z,29.18
2022-08-26T14:08:18.377Z,29.20
2022-08-26T14:13:21.580Z,29.22
2022-08-26T14:15:50.534Z,29.13
2022-08-26T14:18:22.168Z,29.07
2022-08-26T14:20:51.931Z,29.08
2022-08-26T14:23:20.098Z,29.20
2022-08-26T14:25:49.520Z,29.14
2022-08-26T14:28:17.591Z,29.24
2022-08-26T14:30:48.796Z,29.39
2022-08-26T14:33:19.656Z,29.39
2022-08-26T14:35:48.050Z,29.09
2022-08-26T14:38:17.585Z,29.36
2022-08-26T14:40:46.129Z,29.41
2022-08-26T14:43:16.264Z,29.40
2022-08-26T14:45:45.786Z,29.30
2022-08-26T14:48:14.131Z,29.06
2022-08-26T14:50:42.120Z,29.08
2022-08-26T14:53:27.580Z,29.15
2022-08-26T14:55:55.552Z,28.83
2022-08-26T14:58:24.857Z,29.25
2022-08-26T15:00:56.823Z,29.39
2022-08-26T15:03:24.790Z,29.18
2022-08-26T15:05:53.359Z,29.03
2022-08-26T15:08:21.812Z,28.89
2022-08-26T15:10:50.241Z,28.86
2022-08-26T15:13:18.149Z,28.83
2022-08-26T15:15:47.725Z,28.78
2022-08-26T15:18:15.696Z,28.84
2022-08-26T15:20:44.460Z,28.82
2022-08-26T15:23:12.430Z,28.76
2022-08-26T15:25:40.405Z,28.40
2022-08-26T15:28:08.291Z,28.64
2022-08-26T15:30:36.506Z,28.71
2022-08-26T15:33:05.833Z,28.66
2022-08-26T15:35:43.196Z,28.75
2022-08-26T15:38:11.664Z,28.56
2022-08-26T15:40:39.864Z,28.47
2022-08-26T15:43:25.417Z,27.77
2022-08-26T15:45:56.140Z,28.23
2022-08-26T15:48:26.233Z,27.76
2022-08-26T15:50:56.360Z,28.06
2022-08-26T15:53:24.836Z,27.85
2022-08-26T15:55:55.037Z,28.19
2022-08-26T15:58:25.884Z,28.15
2022-08-26T16:00:55.983Z,28.11
2022-08-26T16:03:25.527Z,28.00
2022-08-26T16:05:53.530Z,27.90
2022-08-26T16:08:22.357Z,27.82
2022-08-26T16:10:51.352Z,27.73
2022-08-26T16:13:21.269Z,27.75
2022-08-26T16:15:49.689Z,27.39
2022-08-26T16:18:20.279Z,27.66
2022-08-26T16:21:02.838Z,27.50
2022-08-26T16:23:45.116Z,27.57
2022-08-26T16:26:16.062Z,27.51
2022-08-26T16:28:44.466Z,27.48
2022-08-26T16:31:12.881Z,27.30
2022-08-26T16:33:40.995Z,27.39
2022-08-26T16:36:11.748Z,27.01
2022-08-26T16:38:40.731Z,27.34
2022-08-26T16:41:09.606Z,27.30
2022-08-26T16:43:37.889Z,27.24
2022-08-26T16:46:07.123Z,27.18
2022-08-26T16:48:36.620Z,26.83
2022-08-26T16:51:04.619Z,26.62
2022-08-26T16:53:33.869Z,27.00
2022-08-26T16:56:01.787Z,26.98
2022-08-26T16:58:30.036Z,26.92
2022-08-26T17:00:58.253Z,26.82
2022-08-26T17:03:26.141Z,26.74
2022-08-26T17:05:54.480Z,26.69
2022-08-26T17:08:27.607Z,26.62
2022-08-26T17:11:00.388Z,26.56
2022-08-26T17:13:35.529Z,26.55
2022-08-26T17:16:05.363Z,26.52
2022-08-26T17:18:34.645Z,26.34
2022-08-26T17:21:04.324Z,26.24
2022-08-26T17:23:32.688Z,25.77
2022-08-26T17:26:02.315Z,26.11
2022-08-26T17:28:30.316Z,26.08
2022-08-26T17:31:00.104Z,25.64
2022-08-26T17:33:28.647Z,25.99
2022-08-26T17:35:57.290Z,25.92
2022-08-26T17:38:25.468Z,25.70
2022-08-26T17:40:53.753Z,25.16
2022-08-26T17:43:23.047Z,25.66
2022-08-26T17:45:51.002Z,25.61
2022-08-26T17:48:18.972Z,25.56
2022-08-26T17:50:49.424Z,25.50
2022-08-26T17:53:18.714Z,25.43
2022-08-26T17:55:47.955Z,25.37
2022-08-26T17:58:16.339Z,24.84
2022-08-26T18:00:46.237Z,25.29
2022-08-26T18:03:14.584Z,25.22
2022-08-26T18:05:43.044Z,25.19
2022-08-26T18:08:11.207Z,25.16
2022-08-26T18:10:39.159Z,25.12
2022-08-26T18:13:07.078Z,24.94
2022-08-26T18:15:35.193Z,24.95
2022-08-26T18:18:04.579Z,24.92
2022-08-26T18:20:32.544Z,24.92
2022-08-26T18:23:00.567Z,24.91
2022-08-26T18:25:28.576Z,24.86
2022-08-26T18:27:56.556Z,24.79
2022-08-26T18:30:24.576Z,24.74
2022-08-26T18:32:53.420Z,24.55
2022-08-26T18:35:22.787Z,24.64
2022-08-26T18:37:50.793Z,24.46
2022-08-26T18:40:19.026Z,24.52
2022-08-26T18:42:47.097Z,24.49
2022-08-26T18:45:26.067Z,24.47
2022-08-26T18:47:54.006Z,24.35
2022-08-26T18:50:24.282Z,24.29
2022-08-26T18:52:52.184Z,24.11
2022-08-26T18:55:20.429Z,24.11
2022-08-26T18:57:48.340Z,24.13
2022-08-26T19:00:17.517Z,24.20
2022-08-26T19:02:50.511Z,24.13
2022-08-26T19:05:20.225Z,24.09
2022-08-26T19:07:49.728Z,23.99
2022-08-26T19:10:18.298Z,23.74
2022-08-26T19:12:46.268Z,23.58
2022-08-26T19:15:19.988Z,23.45
2022-08-26T19:17:48.166Z,23.42
2022-08-26T19:20:16.817Z,23.20
2022-08-26T19:22:46.040Z,23.27
2022-08-26T19:25:15.615Z,23.26
2022-08-26T19:27:43.775Z,23.23
2022-08-26T19:30:12.044Z,23.19
2022-08-26T19:32:39.936Z,23.04
2022-08-26T19:35:09.138Z,22.99
2022-08-26T19:37:39.928Z,23.01
2022-08-26T19:40:08.729Z,22.71
2022-08-26T19:42:38.205Z,23.09
2022-08-26T19:45:20.213Z,23.05
2022-08-26T19:47:53.552Z,22.86
2022-08-26T19:50:22.312Z,22.76
2022-08-26T19:52:50.384Z,22.39
2022-08-26T19:55:19.922Z,22.94
2022-08-26T19:57:50.194Z,23.02
2022-08-26T20:00:21.046Z,22.81
2022-08-26T20:02:49.915Z,22.92
2022-08-26T20:05:20.403Z,22.85
2022-08-26T20:07:48.529Z,22.89
2022-08-26T20:10:18.284Z,22.87
2022-08-26T20:12:46.204Z,22.79
2022-08-26T20:15:16.792Z,22.58
2022-08-26T20:17:44.705Z,22.52
2022-08-26T20:20:33.360Z,22.04
2022-08-26T20:23:02.457Z,22.61
2022-08-26T20:25:30.640Z,22.56
2022-08-26T20:27:58.556Z,22.57
2022-08-26T20:30:28.064Z,22.45
2022-08-26T20:32:55.995Z,22.36
2022-08-26T20:35:24.051Z,22.39
2022-08-26T20:37:51.967Z,22.34
2022-08-26T20:40:21.395Z,22.33
2022-08-26T20:42:49.399Z,22.26
2022-08-26T20:45:17.400Z,22.22
2022-08-26T20:47:46.725Z,22.36
2022-08-26T20:50:14.649Z,22.27
2022-08-26T20:52:42.536Z,22.12
2022-08-26T20:55:11.006Z,21.73
2022-08-26T20:57:38.937Z,21.89
2022-08-26T21:00:08.071Z,22.03
2022-08-26T21:02:36.961Z,22.04
2022-08-26T21:05:07.515Z,21.96
2022-08-26T21:07:35.553Z,22.08
2022-08-26T21:10:04.175Z,22.06
2022-08-26T21:12:32.240Z,21.61
2022-08-26T21:15:00.560Z,21.64
2022-08-26T21:17:28.807Z,21.56
2022-08-26T21:19:56.767Z,21.04
2022-08-26T21:22:26.540Z,21.06
2022-08-26T21:24:54.404Z,21.01
2022-08-26T21:27:22.356Z,21.10
2022-08-26T21:29:54.403Z,21.31
2022-08-26T21:32:22.265Z,21.44
2022-08-26T21:34:50.138Z,21.27
2022-08-26T21:37:18.076Z,21.00
2022-08-26T21:39:47.358Z,20.66
2022-08-26T21:42:15.245Z,20.52
2022-08-26T21:44:45.117Z,20.66
2022-08-26T21:47:20.572Z,20.63
2022-08-26T21:49:48.496Z,20.67
2022-08-26T21:52:16.423Z,20.67
2022-08-26T21:54:49.326Z,20.41
2022-08-26T21:57:19.510Z,20.32
2022-08-26T21:59:47.392Z,20.32
2022-08-26T22:02:15.738Z,20.38
2022-08-26T22:04:48.563Z,20.42
2022-08-26T22:07:19.114Z,20.49
2022-08-26T22:09:47.347Z,20.57
2022-08-26T22:12:18.059Z,20.53
2022-08-26T22:14:48.167Z,20.55
2022-08-26T22:17:17.032Z,20.77
2022-08-26T22:19:46.110Z,20.79
2022-08-26T22:22:15.477Z,20.65
2022-08-26T22:24:44.301Z,20.57
2022-08-26T22:27:13.022Z,20.41
